Time;durP1;ratioP1;P1;durP2;ratioP2;P2;SDS_P1;SDS_P2;PMS_P1;PMS_P2;Temp;Humidity;BMP_temperature;BMP_pressure;BME280_temperature;BME280_humidity;BME280_pressure;Samples;Min_cycle;Max_cycle;Signal;HPM_P1;HPM_P2
2023/10/31 00:00:25;;;;;;;10.52;3.83;;;;;;;;;;6052257;23;20196;-90
2023/10/31 00:03:30;;;;;;;6.72;3.83;;;;;;;;;;6071111;23;20225;-90
2023/10/31 00:06:37;;;;;;;7.00;3.67;;;;;;;;;;6053743;23;20163;-92
2023/10/31 00:09:42;;;;;;;11.45;4.03;;;;;;;;;;6054036;23;20170;-90
2023/10/31 00:12:47;;;;;;;9.50;4.03;;;;;;;;;;6054325;23;20335;-92
2023/10/31 00:15:54;;;;;;;11.52;3.72;;;;;;;;;;6057707;23;20175;-90
2023/10/31 00:18:59;;;;;;;8.55;3.53;;;;;;;;;;6054875;23;20170;-91
2023/10/31 00:22:06;;;;;;;7.85;3.20;;;;;;;;;;6053704;23;20179;-90
2023/10/31 00:25:11;;;;;;;7.43;3.10;;;;;;;;;;6055026;23;20176;-89
2023/10/31 00:28:16;;;;;;;5.80;3.00;;;;;;;;;;6054370;23;20187;-91
2023/10/31 00:31:22;;;;;;;5.78;3.25;;;;;;;;;;6053276;23;20202;-92
2023/10/31 00:34:27;;;;;;;6.18;3.13;;;;;;;;;;6054063;23;20219;-93
2023/10/31 00:37:34;;;;;;;4.93;2.88;;;;;;;;;;6054065;23;20192;-91
2023/10/31 00:40:39;;;;;;;5.13;2.88;;;;;;;;;;6052889;23;20175;-91
2023/10/31 00:43:44;;;;;;;6.05;3.20;;;;;;;;;;6053634;23;20168;-92
2023/10/31 00:46:49;;;;;;;8.00;3.10;;;;;;;;;;6053349;23;20172;-92
2023/10/31 00:49:54;;;;;;;3.40;2.15;;;;;;;;;;6053483;23;20268;-92
2023/10/31 00:53:01;;;;;;;4.25;2.25;;;;;;;;;;6053718;23;20175;-90
2023/10/31 00:56:06;;;;;;;6.90;3.05;;;;;;;;;;6052683;23;20195;-93
2023/10/31 00:59:11;;;;;;;0.30;0.30;;;;;;;;;;6051867;23;20251;-92
2023/10/31 01:02:17;;;;;;;0.30;0.30;;;;;;;;;;6049314;23;20159;-93
2023/10/31 01:05:22;;;;;;;0.45;0.45;;;;;;;;;;6049358;23;20155;-92
2023/10/31 01:08:29;;;;;;;0.38;0.38;;;;;;;;;;6050131;23;20155;-93
2023/10/31 01:11:34;;;;;;;1.30;0.65;;;;;;;;;;6052564;23;20202;-93
2023/10/31 01:14:39;;;;;;;0.40;0.40;;;;;;;;;;6053816;23;20188;-91
2023/10/31 01:17:44;;;;;;;0.30;0.30;;;;;;;;;;6053843;23;20247;-93
2023/10/31 01:20:49;;;;;;;0.40;0.40;;;;;;;;;;6050397;23;20179;-91
2023/10/31 01:23:56;;;;;;;0.40;0.40;;;;;;;;;;6050900;23;20237;-91
2023/10/31 01:27:01;;;;;;;0.40;0.40;;;;;;;;;;6052296;23;20155;-93
2023/10/31 01:30:07;;;;;;;0.30;0.30;;;;;;;;;;6051507;23;20171;-92
2023/10/31 01:33:12;;;;;;;0.30;0.30;;;;;;;;;;6054679;23;20659;-91
2023/10/31 01:36:18;;;;;;;0.20;0.20;;;;;;;;;;6054887;23;20168;-91
2023/10/31 01:39:24;;;;;;;0.90;0.50;;;;;;;;;;6054633;23;20224;-91
2023/10/31 01:42:29;;;;;;;0.30;0.30;;;;;;;;;;6056095;23;20196;-92
2023/10/31 01:45:34;;;;;;;0.45;0.45;;;;;;;;;;6055580;23;20216;-94
2023/10/31 01:48:40;;;;;;;0.30;0.30;;;;;;;;;;6055563;23;20263;-90
2023/10/31 01:51:46;;;;;;;0.30;0.30;;;;;;;;;;6055301;23;20199;-93
2023/10/31 01:54:53;;;;;;;0.40;0.40;;;;;;;;;;6054785;23;20171;-92
2023/10/31 01:57:58;;;;;;;0.35;0.35;;;;;;;;;;6053176;23;20311;-90
2023/10/31 02:01:03;;;;;;;0.30;0.30;;;;;;;;;;6053715;23;20501;-92
2023/10/31 02:04:09;;;;;;;0.30;0.30;;;;;;;;;;6053140;23;20167;-92
2023/10/31 02:07:14;;;;;;;0.30;0.30;;;;;;;;;;6054696;23;20159;-94
2023/10/31 02:10:20;;;;;;;0.20;0.20;;;;;;;;;;6051092;23;20611;-93
2023/10/31 02:13:25;;;;;;;0.30;0.30;;;;;;;;;;6053941;23;20170;-92
2023/10/31 02:16:30;;;;;;;0.60;0.60;;;;;;;;;;6054458;23;20247;-93
2023/10/31 02:19:36;;;;;;;0.32;0.32;;;;;;;;;;6054114;23;20176;-90
2023/10/31 02:22:43;;;;;;;0.95;0.75;;;;;;;;;;6054412;23;20171;-93
2023/10/31 02:25:48;;;;;;;0.40;0.40;;;;;;;;;;6051390;23;20171;-90
2023/10/31 02:28:53;;;;;;;0.40;0.40;;;;;;;;;;6051996;23;20198;-91
2023/10/31 02:31:58;;;;;;;0.43;0.43;;;;;;;;;;6052594;23;20195;-93
2023/10/31 02:35:03;;;;;;;0.60;0.60;;;;;;;;;;6051076;23;20171;-92
2023/10/31 02:38:09;;;;;;;0.50;0.50;;;;;;;;;;6052386;23;20171;-93
2023/10/31 02:41:15;;;;;;;0.40;0.35;;;;;;;;;;6051227;23;20174;-92
2023/10/31 02:44:20;;;;;;;0.55;0.55;;;;;;;;;;6052402;23;20166;-91
2023/10/31 02:47:26;;;;;;;0.30;0.30;;;;;;;;;;6053740;23;20188;-91
2023/10/31 02:50:31;;;;;;;0.35;0.35;;;;;;;;;;6052911;23;20237;-91
2023/10/31 02:53:38;;;;;;;0.30;0.30;;;;;;;;;;6053606;23;20163;-90
2023/10/31 02:56:43;;;;;;;4.38;0.50;;;;;;;;;;6053082;23;20174;-90
2023/10/31 02:59:48;;;;;;;0.20;0.20;;;;;;;;;;6052879;23;20171;-94
2023/10/31 03:02:52;;;;;;;0.40;0.40;;;;;;;;;;6050863;23;20176;-93
2023/10/31 03:05:58;;;;;;;0.20;0.20;;;;;;;;;;6051367;23;20171;-93
2023/10/31 03:09:05;;;;;;;0.20;0.20;;;;;;;;;;6051243;23;20168;-92
2023/10/31 03:12:10;;;;;;;0.20;0.20;;;;;;;;;;6051685;23;20186;-91
2023/10/31 03:15:16;;;;;;;0.35;0.35;;;;;;;;;;6068827;23;20170;-93
2023/10/31 03:18:22;;;;;;;0.80;0.70;;;;;;;;;;6052116;23;20167;-90
2023/10/31 03:21:26;;;;;;;0.40;0.40;;;;;;;;;;6052626;23;20179;-93
2023/10/31 03:24:33;;;;;;;0.55;0.35;;;;;;;;;;6052841;23;20170;-92
2023/10/31 03:27:38;;;;;;;0.55;0.40;;;;;;;;;;6051875;23;20171;-89
2023/10/31 03:30:43;;;;;;;0.20;0.20;;;;;;;;;;6051648;23;20175;-92
2023/10/31 03:33:48;;;;;;;0.20;0.20;;;;;;;;;;6051454;23;20171;-92
2023/10/31 03:36:54;;;;;;;0.20;0.20;;;;;;;;;;6051974;23;20179;-92
2023/10/31 03:40:00;;;;;;;0.20;0.20;;;;;;;;;;6052235;23;20223;-93
2023/10/31 03:43:05;;;;;;;0.20;0.20;;;;;;;;;;6052601;23;20183;-91
2023/10/31 03:46:10;;;;;;;0.30;0.30;;;;;;;;;;6053868;23;20191;-92
2023/10/31 03:49:15;;;;;;;0.20;0.20;;;;;;;;;;6053146;23;20184;-91
2023/10/31 03:52:20;;;;;;;0.30;0.30;;;;;;;;;;6053700;23;20245;-92
2023/10/31 03:55:28;;;;;;;0.25;0.25;;;;;;;;;;6053803;23;20179;-90
2023/10/31 03:58:33;;;;;;;0.52;0.30;;;;;;;;;;6054318;23;20195;-91
2023/10/31 04:01:39;;;;;;;0.35;0.35;;;;;;;;;;6055650;23;20172;-91
2023/10/31 04:04:44;;;;;;;0.20;0.20;;;;;;;;;;6053200;23;20175;-90
2023/10/31 04:07:49;;;;;;;0.20;0.20;;;;;;;;;;6053333;23;20184;-90
2023/10/31 04:10:55;;;;;;;0.20;0.20;;;;;;;;;;6052025;23;20171;-92
2023/10/31 04:14:00;;;;;;;0.45;0.45;;;;;;;;;;6053879;23;20184;-92
2023/10/31 04:17:05;;;;;;;0.25;0.25;;;;;;;;;;6051932;23;20241;-93
2023/10/31 04:20:11;;;;;;;0.20;0.20;;;;;;;;;;6051630;23;20150;-92
2023/10/31 04:23:16;;;;;;;0.20;0.20;;;;;;;;;;6052152;23;20184;-93
2023/10/31 04:26:23;;;;;;;0.20;0.20;;;;;;;;;;6053021;23;20241;-90
2023/10/31 04:29:28;;;;;;;0.30;0.30;;;;;;;;;;6054539;23;20173;-91
2023/10/31 04:32:33;;;;;;;0.20;0.20;;;;;;;;;;6052095;23;20283;-91
2023/10/31 04:35:38;;;;;;;0.38;0.38;;;;;;;;;;6055401;23;20247;-90
2023/10/31 04:38:44;;;;;;;0.20;0.20;;;;;;;;;;6056458;23;20286;-92
2023/10/31 04:41:51;;;;;;;0.50;0.50;;;;;;;;;;6055836;23;20175;-92
2023/10/31 04:44:57;;;;;;;0.20;0.20;;;;;;;;;;6051918;23;20170;-91
2023/10/31 04:48:03;;;;;;;0.30;0.30;;;;;;;;;;6054673;23;20171;-91
2023/10/31 04:51:08;;;;;;;0.20;0.20;;;;;;;;;;6055059;23;20179;-92
2023/10/31 04:54:14;;;;;;;0.30;0.30;;;;;;;;;;6053878;23;20167;-91
2023/10/31 04:57:21;;;;;;;0.30;0.30;;;;;;;;;;6053690;23;20198;-91
2023/10/31 05:00:26;;;;;;;0.30;0.30;;;;;;;;;;6050352;23;20183;-94
2023/10/31 05:03:31;;;;;;;0.38;0.38;;;;;;;;;;6051850;23;20200;-89
2023/10/31 05:06:36;;;;;;;0.20;0.20;;;;;;;;;;6070671;23;20207;-91
2023/10/31 05:09:42;;;;;;;0.30;0.30;;;;;;;;;;6056733;23;20172;-93
2023/10/31 05:12:50;;;;;;;0.20;0.20;;;;;;;;;;6070617;23;20206;-90
2023/10/31 05:15:55;;;;;;;0.20;0.20;;;;;;;;;;6056365;23;20178;-91
2023/10/31 05:19:04;;;;;;;0.20;0.20;;;;;;;;;;6052794;23;20230;-92
2023/10/31 05:22:10;;;;;;;0.30;0.30;;;;;;;;;;6059525;23;20213;-93
2023/10/31 05:25:15;;;;;;;0.20;0.20;;;;;;;;;;6058852;23;20518;-92
2023/10/31 05:28:22;;;;;;;0.20;0.20;;;;;;;;;;6057710;23;20188;-90
2023/10/31 05:31:27;;;;;;;0.20;0.20;;;;;;;;;;6057921;23;20171;-91
2023/10/31 05:34:46;;;;;;;0.20;0.20;;;;;;;;;;6058474;23;20208;-92
2023/10/31 05:37:51;;;;;;;0.20;0.20;;;;;;;;;;6058812;23;20175;-93
2023/10/31 05:40:59;;;;;;;0.20;0.20;;;;;;;;;;6059028;23;20176;-91
2023/10/31 05:44:06;;;;;;;0.40;0.40;;;;;;;;;;6058502;23;20160;-90
2023/10/31 05:47:12;;;;;;;0.30;0.30;;;;;;;;;;6059623;23;20224;-90
2023/10/31 05:50:18;;;;;;;0.30;0.30;;;;;;;;;;6059181;23;20175;-88
2023/10/31 05:53:23;;;;;;;0.20;0.20;;;;;;;;;;6054980;23;20201;-92
2023/10/31 05:56:28;;;;;;;0.38;0.35;;;;;;;;;;6053018;23;20171;-93
2023/10/31 05:59:39;;;;;;;0.35;0.35;;;;;;;;;;6052952;23;20171;-91
2023/10/31 06:02:44;;;;;;;0.30;0.30;;;;;;;;;;6051846;23;20247;-90
2023/10/31 06:05:50;;;;;;;1.17;0.70;;;;;;;;;;6056849;23;20158;-91
2023/10/31 06:08:55;;;;;;;0.30;0.30;;;;;;;;;;6055567;23;20503;-91
2023/10/31 06:12:00;;;;;;;0.50;0.50;;;;;;;;;;6054032;23;20599;-91
2023/10/31 06:15:08;;;;;;;0.25;0.25;;;;;;;;;;6055602;23;20171;-91
2023/10/31 06:18:13;;;;;;;0.20;0.20;;;;;;;;;;6054461;23;20192;-92
2023/10/31 06:21:18;;;;;;;0.30;0.30;;;;;;;;;;6055238;23;20175;-90
2023/10/31 06:24:23;;;;;;;0.63;0.55;;;;;;;;;;6054709;23;20233;-92
2023/10/31 06:27:29;;;;;;;0.20;0.20;;;;;;;;;;6053934;23;20208;-92
2023/10/31 06:30:35;;;;;;;0.20;0.20;;;;;;;;;;6053549;23;20200;-91
2023/10/31 06:33:40;;;;;;;0.20;0.20;;;;;;;;;;6056121;23;20195;-89
2023/10/31 06:36:45;;;;;;;0.40;0.40;;;;;;;;;;6054807;23;20224;-89
2023/10/31 06:39:50;;;;;;;0.20;0.20;;;;;;;;;;6058166;23;20189;-95
2023/10/31 06:42:58;;;;;;;0.75;0.73;;;;;;;;;;6057891;23;20542;-91
2023/10/31 06:46:06;;;;;;;0.20;0.20;;;;;;;;;;6056540;23;20193;-91
2023/10/31 06:49:13;;;;;;;0.30;0.30;;;;;;;;;;6055540;23;20496;-90
2023/10/31 06:52:19;;;;;;;1.65;0.57;;;;;;;;;;6056016;23;20703;-89
2023/10/31 06:55:24;;;;;;;0.25;0.25;;;;;;;;;;6058337;23;20231;-91
2023/10/31 06:58:30;;;;;;;0.28;0.28;;;;;;;;;;6057698;23;20195;-93
2023/10/31 07:01:37;;;;;;;0.40;0.40;;;;;;;;;;6059098;23;20228;-94
2023/10/31 07:04:43;;;;;;;0.30;0.30;;;;;;;;;;6058994;23;20230;-91
2023/10/31 07:07:49;;;;;;;0.20;0.20;;;;;;;;;;6059133;23;20171;-90
2023/10/31 07:10:54;;;;;;;0.30;0.30;;;;;;;;;;6057309;23;20166;-92
2023/10/31 07:14:00;;;;;;;0.20;0.20;;;;;;;;;;6058509;23;20199;-92
2023/10/31 07:17:08;;;;;;;0.30;0.30;;;;;;;;;;6058028;23;20184;-92
2023/10/31 07:20:14;;;;;;;0.30;0.30;;;;;;;;;;6059336;23;20179;-93
2023/10/31 07:23:19;;;;;;;0.20;0.20;;;;;;;;;;6059355;23;20247;-92
2023/10/31 07:26:25;;;;;;;0.20;0.20;;;;;;;;;;6057824;23;20184;-93
2023/10/31 07:29:31;;;;;;;0.20;0.20;;;;;;;;;;6058288;23;20227;-91
2023/10/31 07:32:38;;;;;;;0.20;0.20;;;;;;;;;;6057234;23;20202;-92
2023/10/31 07:35:44;;;;;;;0.40;0.40;;;;;;;;;;6059935;23;20172;-91
2023/10/31 07:42:09;;;;;;;0.20;0.20;;;;;;;;;;6056332;23;20228;-91
2023/10/31 07:48:44;;;;;;;0.30;0.30;;;;;;;;;;6057798;23;20171;-92
2023/10/31 07:51:50;;;;;;;0.32;0.32;;;;;;;;;;6059026;23;20678;-91
2023/10/31 07:54:55;;;;;;;0.30;0.30;;;;;;;;;;6073369;23;20171;-94
2023/10/31 07:58:01;;;;;;;0.60;0.60;;;;;;;;;;6057849;23;20186;-90
2023/10/31 08:01:10;;;;;;;0.20;0.20;;;;;;;;;;6057929;23;20304;-92
2023/10/31 08:04:17;;;;;;;0.40;0.40;;;;;;;;;;6058368;23;20205;-92
2023/10/31 08:07:23;;;;;;;0.20;0.20;;;;;;;;;;6057212;23;20175;-92
2023/10/31 08:10:28;;;;;;;0.40;0.40;;;;;;;;;;6058449;23;20224;-91
2023/10/31 08:13:38;;;;;;;0.30;0.30;;;;;;;;;;6059942;23;20236;-93
2023/10/31 08:16:43;;;;;;;0.38;0.38;;;;;;;;;;6059609;23;20620;-91
2023/10/31 08:19:50;;;;;;;0.30;0.30;;;;;;;;;;6057367;23;20188;-94
2023/10/31 08:22:56;;;;;;;0.20;0.20;;;;;;;;;;6062268;23;20228;-91
2023/10/31 08:26:02;;;;;;;0.20;0.20;;;;;;;;;;6062966;23;20155;-92
2023/10/31 08:29:10;;;;;;;0.40;0.40;;;;;;;;;;6060586;23;20221;-92
2023/10/31 08:32:16;;;;;;;0.20;0.20;;;;;;;;;;6075439;23;20240;-93
2023/10/31 08:35:33;;;;;;;0.30;0.30;;;;;;;;;;6058644;23;20167;-92
2023/10/31 08:38:39;;;;;;;0.28;0.28;;;;;;;;;;6075885;23;20174;-91
2023/10/31 08:41:55;;;;;;;0.43;0.43;;;;;;;;;;6057275;23;20158;-91
2023/10/31 08:48:21;;;;;;;0.25;0.25;;;;;;;;;;6059511;23;20212;-92
2023/10/31 08:51:27;;;;;;;1.45;1.00;;;;;;;;;;6057008;23;20196;-94
2023/10/31 09:04:37;;;;;;;0.30;0.30;;;;;;;;;;6072456;23;20207;-91
2023/10/31 09:07:59;;;;;;;0.20;0.20;;;;;;;;;;6068961;23;20170;-93
2023/10/31 09:14:36;;;;;;;0.52;0.52;;;;;;;;;;6069425;23;20263;-93
2023/10/31 09:17:43;;;;;;;0.30;0.30;;;;;;;;;;6068450;23;20184;-91
2023/10/31 09:20:51;;;;;;;0.50;0.50;;;;;;;;;;6068557;23;20174;-93
2023/10/31 09:23:59;;;;;;;0.20;0.20;;;;;;;;;;6070525;23;20166;-92
2023/10/31 09:33:54;;;;;;;0.22;0.22;;;;;;;;;;6071563;23;20222;-92
2023/10/31 09:37:01;;;;;;;0.65;0.65;;;;;;;;;;6071820;23;20155;-94
2023/10/31 09:40:10;;;;;;;0.20;0.20;;;;;;;;;;6090612;23;20504;-95
2023/10/31 09:43:18;;;;;;;0.20;0.20;;;;;;;;;;6069599;23;20178;-93
2023/10/31 09:46:25;;;;;;;0.45;0.45;;;;;;;;;;6069010;23;20542;-93
2023/10/31 09:49:32;;;;;;;0.20;0.20;;;;;;;;;;6069526;23;20226;-92
2023/10/31 09:52:38;;;;;;;0.30;0.30;;;;;;;;;;6068726;23;20246;-92
2023/10/31 09:55:44;;;;;;;0.40;0.40;;;;;;;;;;6072591;23;20258;-93
2023/10/31 09:58:52;;;;;;;0.50;0.50;;;;;;;;;;6069763;23;20226;-93
2023/10/31 10:01:57;;;;;;;0.20;0.20;;;;;;;;;;6068496;23;20512;-92
2023/10/31 10:05:03;;;;;;;0.25;0.25;;;;;;;;;;6069440;23;20170;-93
2023/10/31 10:08:09;;;;;;;0.30;0.30;;;;;;;;;;6069775;23;20188;-93
2023/10/31 10:11:14;;;;;;;0.40;0.40;;;;;;;;;;6066888;23;20247;-93
2023/10/31 10:14:21;;;;;;;0.25;0.25;;;;;;;;;;6067328;23;20182;-93
2023/10/31 10:17:27;;;;;;;0.20;0.20;;;;;;;;;;6066488;23;20174;-94
2023/10/31 10:20:34;;;;;;;0.30;0.30;;;;;;;;;;6070637;23;20151;-94
2023/10/31 10:27:01;;;;;;;0.25;0.25;;;;;;;;;;6069099;23;20221;-93
2023/10/31 10:30:09;;;;;;;0.40;0.40;;;;;;;;;;6086161;23;20287;-92
2023/10/31 10:33:15;;;;;;;0.95;0.60;;;;;;;;;;6084182;23;20259;-90
2023/10/31 10:36:22;;;;;;;0.25;0.25;;;;;;;;;;6086442;23;20336;-93
2023/10/31 10:39:28;;;;;;;0.20;0.20;;;;;;;;;;6103322;23;20174;-92
2023/10/31 10:42:35;;;;;;;0.20;0.20;;;;;;;;;;6087443;23;20163;-92
2023/10/31 10:45:48;;;;;;;0.73;0.28;;;;;;;;;;6085631;23;20286;-94
2023/10/31 10:48:57;;;;;;;0.45;0.45;;;;;;;;;;6087159;23;20179;-93
2023/10/31 10:55:29;;;;;;;0.20;0.20;;;;;;;;;;6087732;23;20202;-93
2023/10/31 10:58:36;;;;;;;0.52;0.52;;;;;;;;;;6088691;23;20222;-92
2023/10/31 11:01:44;;;;;;;0.20;0.20;;;;;;;;;;6086591;23;20174;-91
2023/10/31 11:04:55;;;;;;;0.20;0.20;;;;;;;;;;6102506;23;20158;-92
2023/10/31 11:08:01;;;;;;;0.40;0.40;;;;;;;;;;6085507;23;20166;-92
2023/10/31 11:11:09;;;;;;;0.20;0.20;;;;;;;;;;6085764;23;20154;-92
2023/10/31 11:14:17;;;;;;;0.28;0.28;;;;;;;;;;6089442;23;20238;-92
2023/10/31 11:17:40;;;;;;;0.20;0.20;;;;;;;;;;6092463;23;20203;-93
2023/10/31 11:20:51;;;;;;;0.43;0.43;;;;;;;;;;6088294;23;20174;-93
2023/10/31 11:24:00;;;;;;;0.30;0.30;;;;;;;;;;6086958;23;20153;-91
2023/10/31 11:27:09;;;;;;;0.20;0.20;;;;;;;;;;6081357;23;20258;-93
2023/10/31 11:30:22;;;;;;;0.30;0.30;;;;;;;;;;6103420;23;20174;-91
2023/10/31 11:36:55;;;;;;;0.30;0.28;;;;;;;;;;6088572;23;20254;-93
2023/10/31 11:40:30;;;;;;;12.30;1.40;;;;;;;;;;6090661;23;20166;-92
2023/10/31 11:44:14;;;;;;;2.35;0.60;;;;;;;;;;6085532;23;20301;-92
2023/10/31 11:47:19;;;;;;;0.55;0.50;;;;;;;;;;6085905;23;20153;-93
2023/10/31 11:50:25;;;;;;;0.30;0.30;;;;;;;;;;6103358;23;20175;-92
2023/10/31 11:53:34;;;;;;;0.40;0.40;;;;;;;;;;6085850;23;20206;-92
2023/10/31 11:56:40;;;;;;;0.90;0.50;;;;;;;;;;6087519;23;20202;-90
2023/10/31 11:59:46;;;;;;;0.20;0.20;;;;;;;;;;6085049;23;20203;-88
2023/10/31 12:03:00;;;;;;;1.35;0.52;;;;;;;;;;6086111;23;20178;-91
2023/10/31 12:06:06;;;;;;;0.20;0.20;;;;;;;;;;6085521;23;20224;-91
2023/10/31 12:09:13;;;;;;;0.70;0.50;;;;;;;;;;6085809;23;20175;-92
2023/10/31 12:12:18;;;;;;;0.40;0.40;;;;;;;;;;6101001;23;20643;-90
2023/10/31 12:15:24;;;;;;;0.43;0.43;;;;;;;;;;6083854;23;20247;-91
2023/10/31 12:18:30;;;;;;;0.32;0.32;;;;;;;;;;6086283;23;20264;-92
2023/10/31 12:21:36;;;;;;;0.90;0.68;;;;;;;;;;6085874;23;20214;-93
2023/10/31 12:24:43;;;;;;;0.22;0.22;;;;;;;;;;6084987;23;20614;-91
2023/10/31 12:27:49;;;;;;;0.30;0.30;;;;;;;;;;6101212;23;20201;-94
2023/10/31 12:30:56;;;;;;;0.30;0.30;;;;;;;;;;6085387;23;20181;-92
2023/10/31 12:37:27;;;;;;;0.40;0.40;;;;;;;;;;6069152;23;20222;-90
2023/10/31 12:40:48;;;;;;;0.20;0.20;;;;;;;;;;6057547;23;20167;-90
2023/10/31 12:47:23;;;;;;;4.00;1.00;;;;;;;;;;6058867;23;20171;-89
2023/10/31 12:50:32;;;;;;;0.80;0.80;;;;;;;;;;6059437;23;20176;-91
2023/10/31 12:53:37;;;;;;;0.22;0.22;;;;;;;;;;6057499;23;20194;-91
2023/10/31 12:56:45;;;;;;;0.25;0.25;;;;;;;;;;6057310;23;20175;-91
2023/10/31 13:03:41;;;;;;;6.05;2.53;;;;;;;;;;6060760;23;20179;-94
2023/10/31 13:10:53;;;;;;;5.28;1.70;;;;;;;;;;6060577;23;20203;-89
2023/10/31 13:14:03;;;;;;;3.63;1.30;;;;;;;;;;6054609;23;20207;-90
2023/10/31 13:17:09;;;;;;;3.85;1.13;;;;;;;;;;6057235;23;20175;-91
2023/10/31 13:20:16;;;;;;;3.22;1.35;;;;;;;;;;6056162;23;20175;-90
2023/10/31 13:23:22;;;;;;;4.90;1.60;;;;;;;;;;6056112;23;20158;-92
2023/10/31 13:26:27;;;;;;;2.60;1.27;;;;;;;;;;6057243;23;20183;-92
2023/10/31 13:29:38;;;;;;;5.28;1.42;;;;;;;;;;6059981;23;20200;-91
2023/10/31 13:32:43;;;;;;;5.65;1.58;;;;;;;;;;6059573;23;20192;-92
2023/10/31 13:35:49;;;;;;;1.63;1.23;;;;;;;;;;6057644;23;20176;-91
2023/10/31 13:38:55;;;;;;;8.02;1.50;;;;;;;;;;6058923;23;20159;-92
2023/10/31 13:42:00;;;;;;;2.95;1.30;;;;;;;;;;6059591;23;20592;-91
2023/10/31 13:48:27;;;;;;;4.07;1.30;;;;;;;;;;6058281;23;20167;-90
2023/10/31 13:51:32;;;;;;;5.97;1.40;;;;;;;;;;6057885;23;20227;-91
2023/10/31 13:54:37;;;;;;;4.43;1.38;;;;;;;;;;6056986;23;20199;-94
2023/10/31 13:57:45;;;;;;;4.00;1.50;;;;;;;;;;6058013;23;20171;-92
2023/10/31 14:00:52;;;;;;;3.28;1.50;;;;;;;;;;6057553;23;20180;-92
2023/10/31 14:03:57;;;;;;;4.32;1.65;;;;;;;;;;6057833;23;20191;-92
2023/10/31 14:07:03;;;;;;;5.53;1.40;;;;;;;;;;6057562;23;20168;-92
2023/10/31 14:10:08;;;;;;;4.38;1.27;;;;;;;;;;6056897;23;20245;-93
2023/10/31 14:13:14;;;;;;;7.65;1.70;;;;;;;;;;6058529;23;20159;-92
2023/10/31 14:16:23;;;;;;;7.13;1.33;;;;;;;;;;6058993;23;20167;-92
2023/10/31 14:19:29;;;;;;;3.78;1.20;;;;;;;;;;6056337;23;20560;-92
2023/10/31 14:22:34;;;;;;;3.78;1.20;;;;;;;;;;6057152;23;20212;-88
2023/10/31 14:25:41;;;;;;;2.72;1.27;;;;;;;;;;6056454;23;20661;-90
2023/10/31 14:28:46;;;;;;;3.83;1.38;;;;;;;;;;6057236;23;20175;-93
2023/10/31 14:31:57;;;;;;;2.70;1.33;;;;;;;;;;6058673;23;20166;-92
2023/10/31 14:35:03;;;;;;;3.95;1.40;;;;;;;;;;6055825;23;20199;-91
2023/10/31 14:41:33;;;;;;;10.30;2.60;;;;;;;;;;6058725;23;20195;-91
2023/10/31 14:44:38;;;;;;;13.50;4.65;;;;;;;;;;6058405;23;20179;-91
2023/10/31 14:47:45;;;;;;;9.77;3.30;;;;;;;;;;6056589;23;20185;-91
2023/10/31 14:50:51;;;;;;;6.30;2.10;;;;;;;;;;6056308;23;20208;-89
2023/10/31 14:53:58;;;;;;;6.20;1.90;;;;;;;;;;6055520;23;20175;-91
2023/10/31 14:57:03;;;;;;;4.68;1.80;;;;;;;;;;6057622;23;20174;-90
2023/10/31 15:00:12;;;;;;;4.03;1.60;;;;;;;;;;6056075;23;20184;-92
2023/10/31 15:03:19;;;;;;;7.65;1.67;;;;;;;;;;6057764;23;20175;-92
2023/10/31 15:06:25;;;;;;;6.60;1.90;;;;;;;;;;6058760;23;20183;-90
2023/10/31 15:09:31;;;;;;;5.85;1.67;;;;;;;;;;6057454;23;20174;-92
2023/10/31 15:12:36;;;;;;;4.43;1.50;;;;;;;;;;6060192;23;20165;-91
2023/10/31 15:15:44;;;;;;;10.55;2.40;;;;;;;;;;6058568;23;20203;-91
2023/10/31 15:18:51;;;;;;;4.35;1.48;;;;;;;;;;6055993;23;20179;-92
2023/10/31 15:21:56;;;;;;;3.75;2.10;;;;;;;;;;6057874;23;20171;-92
2023/10/31 15:25:02;;;;;;;7.60;2.50;;;;;;;;;;6057892;23;20219;-91
2023/10/31 15:28:10;;;;;;;7.30;1.92;;;;;;;;;;6058186;23;20175;-90
2023/10/31 15:31:16;;;;;;;8.45;2.30;;;;;;;;;;6056563;23;20172;-91
2023/10/31 15:34:25;;;;;;;5.10;1.75;;;;;;;;;;6059627;23;20195;-91
2023/10/31 15:37:45;;;;;;;4.68;1.60;;;;;;;;;;6058496;23;20256;-90
2023/10/31 15:40:51;;;;;;;6.75;1.85;;;;;;;;;;6040445;23;20175;-91
2023/10/31 15:43:57;;;;;;;11.98;3.67;;;;;;;;;;6056892;23;20163;-91
2023/10/31 15:47:04;;;;;;;13.13;4.22;;;;;;;;;;6056117;23;20219;-92
2023/10/31 15:50:17;;;;;;;14.48;4.13;;;;;;;;;;6057635;23;20166;-92
2023/10/31 15:53:23;;;;;;;7.85;3.13;;;;;;;;;;6057895;23;20178;-92
2023/10/31 15:56:33;;;;;;;10.57;3.00;;;;;;;;;;6055227;23;20175;-94
2023/10/31 15:59:39;;;;;;;9.95;3.13;;;;;;;;;;6059081;23;20175;-90
2023/10/31 16:02:46;;;;;;;6.95;2.83;;;;;;;;;;6058916;23;20179;-91
2023/10/31 16:09:29;;;;;;;7.10;2.40;;;;;;;;;;6058659;23;20179;-92
2023/10/31 16:12:35;;;;;;;7.75;2.47;;;;;;;;;;6059144;23;20212;-93
2023/10/31 16:19:01;;;;;;;9.80;3.13;;;;;;;;;;6059704;23;20190;-93
2023/10/31 16:22:09;;;;;;;3.88;2.10;;;;;;;;;;6060399;23;20180;-92
2023/10/31 16:28:33;;;;;;;5.38;2.22;;;;;;;;;;6031134;23;20195;31
2023/10/31 16:31:39;;;;;;;4.22;1.63;;;;;;;;;;6052813;23;20183;-90
2023/10/31 16:34:46;;;;;;;9.35;1.80;;;;;;;;;;6035496;23;20194;-91
2023/10/31 16:37:59;;;;;;;10.13;2.70;;;;;;;;;;6038271;23;20200;-91
2023/10/31 16:41:05;;;;;;;4.32;1.85;;;;;;;;;;6042723;23;20204;-92
2023/10/31 16:47:43;;;;;;;5.32;2.50;;;;;;;;;;6058045;23;20223;-92
2023/10/31 16:50:56;;;;;;;5.50;2.08;;;;;;;;;;6040765;23;20184;-89
2023/10/31 16:54:02;;;;;;;6.53;3.25;;;;;;;;;;6041583;23;20227;-91
2023/10/31 16:57:10;;;;;;;9.35;4.85;;;;;;;;;;6041174;23;20171;-94
2023/10/31 17:00:18;;;;;;;13.88;5.90;;;;;;;;;;6043864;23;20196;-91
2023/10/31 17:03:29;;;;;;;14.55;5.88;;;;;;;;;;6046104;23;20242;-92
2023/10/31 17:09:55;;;;;;;15.98;5.47;;;;;;;;;;6047962;23;20179;-92
2023/10/31 17:13:07;;;;;;;16.25;7.18;;;;;;;;;;6063880;23;20179;-91
2023/10/31 17:16:16;;;;;;;16.55;5.82;;;;;;;;;;6062409;23;20231;-92
2023/10/31 17:23:06;;;;;;;10.60;4.32;;;;;;;;;;6046081;23;20224;-92
2023/10/31 17:26:12;;;;;;;11.30;4.60;;;;;;;;;;6046367;23;20162;-94
2023/10/31 17:29:20;;;;;;;17.70;5.78;;;;;;;;;;6046488;23;20220;-92
2023/10/31 17:35:49;;;;;;;22.63;8.65;;;;;;;;;;6046104;23;20198;-93
2023/10/31 17:38:56;;;;;;;23.25;8.05;;;;;;;;;;6044582;23;20223;-92
2023/10/31 17:57:56;;;;;;;;;;;;;;;;;;;;;
2023/10/31 18:04:51;;;;;;;15.45;7.18;;;;;;;;;;6092323;23;20174;-93
2023/10/31 18:08:17;;;;;;;12.05;5.32;;;;;;;;;;6092501;23;20166;-94
2023/10/31 18:11:25;;;;;;;12.75;5.00;;;;;;;;;;6093136;23;20212;-95
2023/10/31 18:14:45;;;;;;;14.70;4.50;;;;;;;;;;6092279;23;20202;-93
2023/10/31 18:18:08;;;;;;;21.40;8.48;;;;;;;;;;6091713;23;20219;-93
2023/10/31 19:09:45;;;;;;;10.60;4.00;;;;;;;;;;6042745;23;20270;-91
2023/10/31 19:13:01;;;;;;;14.50;5.28;;;;;;;;;;6077018;23;20175;-93
